Terminal Aerodrome Forecast
Issued by NWS Kansas City/Pleasant Hill, MO

Home | Current Version | Previous Version | Text Only | Print | Product List | Glossary On
Versions: 1 2 3 4 5 6 7 8 9 10 11 12 13 14 15 16 17
995
FTUS43 KEAX 152333
TAFMCI
TAF
KMCI 152333Z 1600/1624 36010KT P6SM BKN150
     FM160200 35015G25KT P6SM SCT025
     FM160400 35016G26KT P6SM BKN025 BKN035
      TEMPO 1605/1609 BKN035
     FM161200 01007KT P6SM FEW030 FEW100=

USA.gov is the U.S. government's official web portal to all federal, state and local government web resources and services.